createdAt,value
2018-09-14T00:02:05.536Z,11.00
2018-09-14T00:04:34.651Z,11.00
2018-09-14T00:07:02.814Z,11.00
2018-09-14T00:09:31.029Z,10.90
2018-09-14T00:11:59.217Z,10.90
2018-09-14T00:14:27.441Z,10.90
2018-09-14T00:16:55.617Z,10.90
2018-09-14T00:19:23.878Z,10.90
2018-09-14T00:21:53.312Z,10.90
2018-09-14T00:24:21.520Z,10.80
2018-09-14T00:26:49.802Z,10.80
2018-09-14T00:29:21.077Z,10.80
2018-09-14T00:31:49.280Z,10.80
2018-09-14T00:34:17.640Z,10.80
2018-09-14T00:36:45.948Z,10.70
2018-09-14T00:39:14.181Z,10.70
2018-09-14T00:41:42.385Z,10.70
2018-09-14T00:44:10.867Z,10.70
2018-09-14T00:46:39.028Z,10.60
2018-09-14T00:49:07.355Z,10.60
2018-09-14T00:51:35.612Z,10.60
2018-09-14T00:54:03.838Z,10.60
2018-09-14T00:56:32.129Z,10.60
2018-09-14T00:59:00.337Z,10.60
2018-09-14T01:01:28.545Z,10.60
2018-09-14T01:03:56.777Z,10.50
2018-09-14T01:06:25.075Z,10.50
2018-09-14T01:08:53.382Z,10.50
2018-09-14T01:11:21.688Z,10.50
2018-09-14T01:13:49.885Z,10.40
2018-09-14T01:16:18.141Z,10.50
2018-09-14T01:18:46.381Z,10.50
2018-09-14T01:21:14.632Z,10.40
2018-09-14T01:25:39.078Z,10.40
2018-09-14T01:28:07.281Z,10.30
2018-09-14T01:30:35.512Z,10.30
2018-09-14T01:33:03.780Z,10.30
2018-09-14T01:35:37.351Z,10.30
2018-09-14T01:38:05.606Z,10.30
2018-09-14T01:40:33.779Z,10.30
2018-09-14T01:43:02.570Z,10.30
2018-09-14T01:45:30.947Z,10.30
2018-09-14T01:47:59.119Z,10.30
2018-09-14T01:50:27.367Z,10.30
2018-09-14T01:52:55.616Z,10.20
2018-09-14T01:55:23.805Z,10.20
2018-09-14T01:57:52.015Z,10.20
2018-09-14T02:00:20.198Z,10.20
2018-09-14T02:02:55.001Z,10.10
2018-09-14T02:05:23.225Z,10.10
2018-09-14T02:07:51.477Z,10.00
2018-09-14T02:10:23.836Z,10.10
2018-09-14T02:12:53.180Z,10.10
2018-09-14T02:15:21.532Z,10.10
2018-09-14T02:17:49.702Z,10.00
2018-09-14T02:20:19.058Z,10.00
2018-09-14T02:22:50.059Z,10.00
2018-09-14T02:25:18.240Z,10.00
2018-09-14T02:27:46.496Z,9.90
2018-09-14T02:30:14.724Z,9.90
2018-09-14T02:32:43.826Z,9.90
2018-09-14T02:35:12.082Z,9.80
2018-09-14T02:37:40.262Z,9.80
2018-09-14T02:40:08.498Z,9.90
2018-09-14T02:42:36.736Z,9.80
2018-09-14T02:45:05.437Z,9.80
2018-09-14T02:47:33.657Z,9.80
2018-09-14T02:50:01.846Z,9.90
2018-09-14T02:52:30.260Z,9.90
2018-09-14T02:54:58.480Z,9.90
2018-09-14T02:57:26.653Z,9.80
2018-09-14T02:59:54.860Z,9.80
2018-09-14T03:02:23.041Z,9.80
2018-09-14T03:04:51.252Z,9.80
2018-09-14T03:07:19.555Z,9.70
2018-09-14T03:09:47.803Z,9.80
2018-09-14T03:17:14.694Z,9.80
2018-09-14T03:19:42.970Z,9.70
2018-09-14T03:22:11.355Z,9.70
2018-09-14T03:24:39.517Z,9.70
2018-09-14T03:27:07.852Z,9.70
2018-09-14T03:34:34.097Z,9.70
2018-09-14T03:37:02.292Z,9.70
2018-09-14T03:39:30.497Z,9.70
2018-09-14T03:41:58.714Z,9.70
2018-09-14T03:44:26.991Z,9.70
2018-09-14T03:46:55.212Z,9.70
2018-09-14T03:49:23.464Z,9.70
2018-09-14T03:51:51.770Z,9.70
2018-09-14T03:54:20.059Z,9.70
2018-09-14T03:56:48.296Z,9.70
2018-09-14T03:59:16.560Z,9.70
2018-09-14T04:01:44.847Z,9.70
2018-09-14T04:04:13.118Z,9.70
2018-09-14T04:06:41.305Z,8.40
2018-09-14T04:09:10.744Z,9.70
2018-09-14T04:11:38.976Z,9.80
2018-09-14T04:14:07.612Z,9.80
2018-09-14T04:16:35.887Z,9.90
2018-09-14T04:19:05.244Z,9.90
2018-09-14T04:21:35.869Z,9.80
2018-09-14T04:24:04.418Z,9.80
2018-09-14T04:26:32.776Z,9.80
2018-09-14T04:29:01.497Z,9.80
2018-09-14T04:31:29.773Z,9.80
2018-09-14T04:33:58.060Z,9.80
2018-09-14T04:41:19.407Z,9.80
2018-09-14T04:43:47.645Z,9.70
2018-09-14T04:46:16.048Z,9.70
2018-09-14T04:48:44.445Z,9.70
2018-09-14T04:51:13.139Z,9.60
2018-09-14T04:53:41.382Z,9.60
2018-09-14T04:56:10.231Z,9.70
2018-09-14T04:58:38.726Z,9.60
2018-09-14T05:01:06.950Z,9.70
2018-09-14T05:03:35.417Z,9.70
2018-09-14T05:06:03.716Z,9.60
2018-09-14T05:08:31.970Z,9.70
2018-09-14T05:11:00.252Z,9.60
2018-09-14T05:13:28.486Z,9.60
2018-09-14T05:15:56.713Z,10.90
2018-09-14T05:18:24.894Z,9.60
2018-09-14T05:20:53.112Z,9.60
2018-09-14T05:23:21.422Z,9.60
2018-09-14T05:25:49.636Z,9.60
2018-09-14T05:28:17.879Z,9.60
2018-09-14T05:30:46.158Z,9.60
2018-09-14T05:38:08.030Z,9.70
2018-09-14T05:40:36.240Z,9.80
2018-09-14T05:43:04.422Z,9.80
2018-09-14T05:45:32.669Z,9.90
2018-09-14T05:48:00.822Z,9.90
2018-09-14T05:50:29.279Z,9.90
2018-09-14T05:52:57.470Z,9.90
2018-09-14T05:55:25.638Z,10.00
2018-09-14T05:57:53.839Z,10.10
2018-09-14T06:00:22.030Z,10.20
2018-09-14T06:02:50.243Z,10.20
2018-09-14T06:05:18.453Z,10.30
2018-09-14T06:07:47.668Z,10.50
2018-09-14T06:10:15.932Z,10.60
2018-09-14T06:12:44.147Z,10.70
2018-09-14T06:15:12.361Z,10.70
2018-09-14T06:17:40.635Z,10.80
2018-09-14T06:20:08.896Z,10.90
2018-09-14T06:22:37.334Z,11.00
2018-09-14T06:25:05.708Z,11.10
2018-09-14T06:27:34.463Z,11.20
2018-09-14T06:30:02.721Z,11.20
2018-09-14T06:32:30.940Z,11.20
2018-09-14T06:34:59.179Z,11.40
2018-09-14T06:37:27.471Z,11.50
2018-09-14T06:39:55.740Z,11.60
2018-09-14T06:42:23.922Z,11.60
2018-09-14T06:44:52.278Z,11.80
2018-09-14T06:47:21.417Z,11.90
2018-09-14T06:49:49.729Z,11.90
2018-09-14T06:52:17.946Z,12.00
2018-09-14T06:54:46.194Z,12.10
2018-09-14T06:57:14.707Z,12.30
2018-09-14T06:59:43.010Z,12.30
2018-09-14T07:02:11.239Z,12.30
2018-09-14T07:04:39.757Z,12.30
2018-09-14T07:07:07.987Z,12.50
2018-09-14T07:09:36.190Z,12.70
2018-09-14T07:12:04.392Z,12.70
2018-09-14T07:14:32.596Z,12.90
2018-09-14T07:17:00.739Z,13.00
2018-09-14T07:19:28.958Z,13.10
2018-09-14T07:21:57.337Z,13.20
2018-09-14T07:24:25.575Z,13.30
2018-09-14T07:26:54.640Z,13.50
2018-09-14T07:29:23.017Z,13.60
2018-09-14T07:31:51.491Z,13.80
2018-09-14T07:34:19.523Z,14.10
2018-09-14T07:36:47.763Z,14.50
2018-09-14T07:39:15.988Z,15.00
2018-09-14T07:41:44.209Z,15.60
2018-09-14T07:45:43.993Z,16.10
2018-09-14T07:48:12.211Z,16.50
2018-09-14T07:50:40.549Z,16.00
2018-09-14T07:53:08.794Z,15.90
2018-09-14T07:55:37.067Z,15.80
2018-09-14T07:58:05.275Z,15.90
2018-09-14T08:00:33.518Z,15.80
2018-09-14T08:03:01.716Z,15.90
2018-09-14T08:10:24.040Z,15.90
2018-09-14T08:12:52.318Z,16.30
2018-09-14T08:15:20.538Z,17.40
2018-09-14T08:17:48.745Z,18.60
2018-09-14T08:20:16.981Z,20.50
2018-09-14T08:22:46.513Z,21.80
2018-09-14T08:25:14.763Z,23.20
2018-09-14T08:27:43.129Z,23.80
2018-09-14T08:30:11.501Z,24.60
2018-09-14T08:32:39.743Z,25.20
2018-09-14T08:35:08.129Z,26.10
2018-09-14T08:37:36.330Z,27.20
2018-09-14T08:40:04.554Z,26.60
2018-09-14T08:42:32.742Z,26.70
2018-09-14T08:45:00.919Z,27.40
2018-09-14T08:47:29.155Z,27.80
2018-09-14T08:49:57.370Z,28.30
2018-09-14T08:52:25.557Z,27.80
2018-09-14T08:54:53.830Z,28.00
2018-09-14T08:57:22.302Z,28.30
2018-09-14T08:59:50.573Z,27.90
2018-09-14T09:02:19.564Z,27.60
2018-09-14T09:04:47.749Z,27.20
2018-09-14T09:07:16.099Z,26.70
2018-09-14T09:09:44.433Z,26.80
2018-09-14T09:12:12.637Z,27.60
2018-09-14T09:14:40.839Z,28.40
2018-09-14T09:17:09.043Z,28.20
2018-09-14T09:19:37.277Z,28.30
2018-09-14T09:22:05.528Z,29.20
2018-09-14T09:24:34.664Z,29.30
2018-09-14T09:27:02.863Z,29.10
2018-09-14T09:29:31.085Z,28.70
2018-09-14T09:31:59.301Z,28.70
2018-09-14T09:34:27.530Z,28.80
2018-09-14T09:36:55.994Z,28.60
2018-09-14T09:39:24.366Z,28.30
2018-09-14T09:46:45.136Z,28.80
2018-09-14T09:49:13.370Z,28.10
2018-09-14T09:51:41.519Z,27.20
2018-09-14T09:54:10.049Z,26.40
2018-09-14T09:56:38.266Z,25.40
2018-09-14T09:59:07.788Z,24.00
2018-09-14T10:01:41.391Z,23.30
2018-09-14T10:05:51.048Z,22.90
2018-09-14T10:08:19.257Z,22.70
2018-09-14T10:10:47.450Z,21.90
2018-09-14T10:13:15.667Z,21.80
2018-09-14T10:15:43.843Z,23.00
2018-09-14T10:18:12.673Z,23.60
2018-09-14T10:20:40.954Z,23.80
2018-09-14T10:23:09.177Z,23.40
2018-09-14T10:25:37.415Z,23.10
2018-09-14T10:28:05.727Z,22.60
2018-09-14T10:30:34.755Z,22.40
2018-09-14T10:33:03.002Z,22.40
2018-09-14T10:35:31.236Z,22.60
2018-09-14T10:37:59.488Z,22.30
2018-09-14T10:40:27.719Z,22.00
2018-09-14T10:42:56.004Z,21.80
2018-09-14T10:45:24.235Z,21.90
2018-09-14T10:47:52.546Z,21.70
2018-09-14T10:50:20.819Z,21.60
2018-09-14T10:52:49.048Z,21.80
2018-09-14T10:55:17.318Z,21.80
2018-09-14T10:57:45.442Z,21.80
2018-09-14T11:00:13.808Z,21.80
2018-09-14T11:02:42.025Z,22.20
2018-09-14T11:05:10.242Z,22.40
2018-09-14T11:07:38.498Z,22.30
2018-09-14T11:10:07.878Z,22.10
2018-09-14T11:12:36.120Z,21.20
2018-09-14T11:15:04.218Z,20.80
2018-09-14T11:17:33.157Z,20.60
2018-09-14T11:20:01.351Z,20.70
2018-09-14T11:22:29.608Z,21.10
2018-09-14T11:24:57.874Z,21.00
2018-09-14T11:27:26.068Z,20.90
2018-09-14T11:29:54.299Z,20.60
2018-09-14T11:32:22.582Z,20.20
2018-09-14T11:34:50.776Z,20.20
2018-09-14T11:37:19.083Z,20.30
2018-09-14T11:39:47.332Z,20.30
2018-09-14T11:42:15.494Z,20.20
2018-09-14T11:44:43.658Z,20.30
2018-09-14T11:47:11.858Z,20.50
2018-09-14T11:54:34.138Z,20.50
2018-09-14T11:57:02.375Z,21.00
2018-09-14T11:59:30.548Z,21.50
2018-09-14T12:01:58.884Z,21.40
2018-09-14T12:04:27.117Z,21.50
2018-09-14T12:06:55.340Z,21.80
2018-09-14T12:09:23.600Z,21.60
2018-09-14T12:11:51.819Z,21.80
2018-09-14T12:14:20.071Z,21.80
2018-09-14T12:16:48.294Z,21.60
2018-09-14T12:19:16.537Z,21.00
2018-09-14T12:21:44.744Z,19.50
2018-09-14T12:25:54.241Z,20.70
2018-09-14T12:28:22.446Z,20.60
2018-09-14T12:30:50.653Z,20.40
2018-09-14T12:33:18.847Z,20.40
2018-09-14T12:35:47.098Z,20.60
2018-09-14T12:38:15.301Z,20.60
2018-09-14T12:40:43.524Z,20.50
2018-09-14T12:43:11.741Z,20.90
2018-09-14T12:45:39.989Z,21.20
2018-09-14T12:48:08.217Z,20.80
2018-09-14T12:50:36.808Z,20.40
2018-09-14T12:53:04.982Z,20.30
2018-09-14T12:55:33.822Z,20.40
2018-09-14T12:58:01.995Z,20.30
2018-09-14T13:00:30.227Z,20.40
2018-09-14T13:02:58.474Z,20.50
2018-09-14T13:05:26.798Z,21.10
2018-09-14T13:07:54.991Z,21.30
2018-09-14T13:10:24.476Z,21.50
2018-09-14T13:12:53.602Z,22.00
2018-09-14T13:15:21.995Z,22.20
2018-09-14T13:17:50.531Z,22.20
2018-09-14T13:20:18.879Z,22.50
2018-09-14T13:22:47.314Z,22.40
2018-09-14T13:25:15.600Z,22.30
2018-09-14T13:27:44.134Z,22.30
2018-09-14T13:30:12.585Z,22.10
2018-09-14T13:32:43.411Z,21.70
2018-09-14T13:35:47.767Z,21.40
2018-09-14T13:38:15.965Z,21.40
2018-09-14T13:40:44.162Z,21.60
2018-09-14T13:43:12.396Z,21.60
2018-09-14T13:45:40.893Z,21.30
2018-09-14T13:48:09.097Z,20.90
2018-09-14T13:50:37.302Z,20.70
2018-09-14T13:53:05.526Z,21.00
2018-09-14T13:55:34.609Z,21.40
2018-09-14T13:58:02.947Z,21.60
2018-09-14T14:00:31.214Z,22.00
2018-09-14T14:02:59.490Z,21.90
2018-09-14T14:05:27.713Z,21.70
2018-09-14T14:07:55.965Z,21.70
2018-09-14T14:10:24.345Z,21.40
2018-09-14T14:12:52.507Z,21.10
2018-09-14T14:15:20.719Z,20.70
2018-09-14T14:17:49.066Z,20.60
2018-09-14T14:20:17.351Z,20.60
2018-09-14T14:22:45.611Z,20.80
2018-09-14T14:25:13.769Z,21.00
2018-09-14T14:27:41.994Z,20.90
2018-09-14T14:30:10.374Z,20.50
2018-09-14T14:32:39.858Z,20.40
2018-09-14T14:35:08.994Z,20.20
2018-09-14T14:37:37.226Z,20.20
2018-09-14T14:40:05.473Z,20.40
2018-09-14T14:42:33.647Z,20.70
2018-09-14T14:45:01.835Z,20.70
2018-09-14T14:47:30.889Z,20.70
2018-09-14T14:49:59.177Z,20.60
2018-09-14T14:52:27.412Z,20.40
2018-09-14T14:54:55.689Z,20.10
2018-09-14T14:57:25.532Z,20.10
2018-09-14T14:59:53.811Z,20.20
2018-09-14T15:02:22.061Z,20.40
2018-09-14T15:04:50.362Z,20.50
2018-09-14T15:07:18.584Z,20.40
2018-09-14T15:09:46.926Z,20.50
2018-09-14T15:12:15.185Z,20.50
2018-09-14T15:14:43.453Z,20.40
2018-09-14T15:17:11.639Z,20.30
2018-09-14T15:24:33.341Z,20.00
2018-09-14T15:27:01.524Z,20.00
2018-09-14T15:29:29.748Z,19.80
2018-09-14T15:31:57.981Z,19.80
2018-09-14T15:34:26.342Z,19.80
2018-09-14T15:36:55.608Z,19.80
2018-09-14T15:39:24.000Z,19.70
2018-09-14T15:41:52.170Z,19.70
2018-09-14T15:44:20.530Z,19.70
2018-09-14T15:46:48.822Z,19.70
2018-09-14T15:49:17.152Z,19.80
2018-09-14T15:51:45.380Z,19.80
2018-09-14T15:54:13.616Z,19.80
2018-09-14T15:56:41.839Z,19.60
2018-09-14T15:59:10.020Z,19.50
2018-09-14T16:01:38.252Z,19.40
2018-09-14T16:04:06.734Z,19.40
2018-09-14T16:06:35.029Z,19.40
2018-09-14T16:09:03.815Z,19.50
2018-09-14T16:11:33.607Z,19.40
2018-09-14T16:14:01.872Z,19.30
2018-09-14T16:16:33.251Z,19.20
2018-09-14T16:19:01.651Z,19.00
2018-09-14T16:21:31.004Z,18.90
2018-09-14T16:23:59.470Z,18.80
2018-09-14T16:26:28.092Z,18.70
2018-09-14T16:28:57.300Z,18.70
2018-09-14T16:31:27.026Z,18.70
2018-09-14T16:33:55.445Z,18.60
2018-09-14T16:36:24.037Z,18.60
2018-09-14T16:38:52.467Z,18.60
2018-09-14T16:41:21.345Z,18.60
2018-09-14T16:50:46.627Z,18.40
2018-09-14T16:53:15.049Z,18.20
2018-09-14T16:55:43.962Z,18.20
2018-09-14T16:58:12.664Z,18.40
2018-09-14T17:00:41.290Z,18.20
2018-09-14T17:03:11.256Z,18.10
2018-09-14T17:05:40.317Z,18.10
2018-09-14T17:13:03.107Z,17.80
2018-09-14T17:15:31.617Z,17.70
2018-09-14T17:18:00.709Z,17.60
2018-09-14T17:20:29.144Z,17.50
2018-09-14T17:22:57.695Z,17.40
2018-09-14T17:25:27.956Z,17.40
2018-09-14T17:27:58.321Z,17.30
2018-09-14T17:30:28.172Z,17.30
2018-09-14T17:32:56.966Z,17.20
2018-09-14T17:35:26.515Z,17.10
2018-09-14T17:37:58.876Z,17.00
2018-09-14T17:40:28.983Z,16.90
2018-09-14T17:42:58.068Z,16.80
2018-09-14T17:45:26.502Z,16.70
2018-09-14T17:47:54.934Z,16.60
2018-09-14T17:50:23.250Z,16.40
2018-09-14T17:52:51.951Z,16.40
2018-09-14T17:55:20.706Z,16.30
2018-09-14T17:57:52.077Z,16.20
2018-09-14T18:00:20.703Z,16.10
2018-09-14T18:02:49.045Z,16.10
2018-09-14T18:05:18.509Z,16.00
2018-09-14T18:07:47.162Z,15.90
2018-09-14T18:10:15.800Z,15.90
2018-09-14T18:12:44.128Z,15.80
2018-09-14T18:15:13.080Z,15.70
2018-09-14T18:17:42.649Z,15.70
2018-09-14T18:20:13.024Z,15.60
2018-09-14T18:22:41.785Z,15.60
2018-09-14T18:25:10.292Z,15.60
2018-09-14T18:27:39.536Z,15.50
2018-09-14T18:30:08.322Z,15.40
2018-09-14T18:32:37.207Z,15.40
2018-09-14T18:35:06.105Z,15.30
2018-09-14T18:37:35.693Z,15.20
2018-09-14T18:40:04.636Z,15.10
2018-09-14T18:42:34.477Z,15.10
2018-09-14T18:45:04.005Z,15.00
2018-09-14T18:47:32.780Z,15.00
2018-09-14T18:50:03.334Z,15.00
2018-09-14T18:52:34.784Z,15.00
2018-09-14T18:55:04.960Z,14.90
2018-09-14T18:57:36.733Z,14.90
2018-09-14T19:00:06.353Z,14.90
2018-09-14T19:02:36.088Z,14.80
2018-09-14T19:05:04.706Z,14.80
2018-09-14T19:07:34.548Z,14.80
2018-09-14T19:10:03.473Z,14.70
2018-09-14T19:12:33.106Z,14.70
2018-09-14T19:15:03.488Z,14.60
2018-09-14T19:17:31.958Z,14.60
2018-09-14T19:20:00.684Z,14.50
2018-09-14T19:22:29.301Z,14.40
2018-09-14T19:24:57.590Z,14.40
2018-09-14T19:27:26.092Z,14.50
2018-09-14T19:29:54.424Z,14.40
2018-09-14T19:32:22.871Z,14.40
2018-09-14T19:34:51.190Z,14.40
2018-09-14T19:37:20.066Z,14.40
2018-09-14T19:40:19.248Z,14.40
2018-09-14T19:42:47.733Z,14.40
2018-09-14T19:45:16.105Z,14.40
2018-09-14T19:47:44.523Z,14.40
2018-09-14T19:50:12.898Z,14.40
2018-09-14T19:52:41.234Z,14.40
2018-09-14T19:55:09.556Z,14.40
2018-09-14T19:57:37.947Z,14.40
2018-09-14T20:00:06.510Z,14.30
2018-09-14T20:02:34.822Z,14.30
2018-09-14T20:05:05.057Z,14.30
2018-09-14T20:07:35.794Z,14.30
2018-09-14T20:10:06.562Z,14.20
2018-09-14T20:12:34.901Z,14.20
2018-09-14T20:15:05.049Z,14.10
2018-09-14T20:17:33.536Z,14.10
2018-09-14T20:20:02.006Z,14.10
2018-09-14T20:22:30.971Z,14.10
2018-09-14T20:24:59.488Z,14.10
2018-09-14T20:27:29.099Z,14.00
2018-09-14T20:29:59.472Z,14.00
2018-09-14T20:32:27.847Z,13.90
2018-09-14T20:34:56.367Z,13.90
2018-09-14T20:37:24.723Z,13.90
2018-09-14T20:39:53.159Z,13.90
2018-09-14T20:42:21.481Z,13.90
2018-09-14T20:44:49.739Z,13.90
2018-09-14T20:52:11.371Z,13.90
2018-09-14T20:54:40.700Z,13.80
2018-09-14T20:57:08.932Z,13.80
2018-09-14T20:59:37.249Z,13.80
2018-09-14T21:02:05.518Z,13.80
2018-09-14T21:04:34.762Z,13.90
2018-09-14T21:07:03.259Z,13.90
2018-09-14T21:09:31.450Z,14.00
2018-09-14T21:11:59.664Z,14.10
2018-09-14T21:14:27.875Z,14.10
2018-09-14T21:16:56.643Z,14.20
2018-09-14T21:19:25.019Z,14.20
2018-09-14T21:21:53.325Z,14.20
2018-09-14T21:24:21.615Z,14.20
2018-09-14T21:26:51.803Z,14.20
2018-09-14T21:29:20.049Z,14.20
2018-09-14T21:31:48.222Z,14.20
2018-09-14T21:34:16.427Z,14.30
2018-09-14T21:36:44.859Z,14.30
2018-09-14T21:39:13.204Z,14.30
2018-09-14T21:41:41.398Z,14.30
2018-09-14T21:44:10.256Z,14.30
2018-09-14T21:46:38.728Z,14.20
2018-09-14T21:49:07.046Z,14.20
2018-09-14T21:51:35.420Z,14.20
2018-09-14T21:54:03.786Z,14.20
2018-09-14T21:56:32.024Z,14.20
2018-09-14T21:59:00.266Z,14.20
2018-09-14T22:01:29.635Z,14.20
2018-09-14T22:03:59.154Z,14.20
2018-09-14T22:06:27.407Z,14.30
2018-09-14T22:08:56.190Z,14.30
2018-09-14T22:11:24.393Z,14.30
2018-09-14T22:13:52.682Z,14.30
2018-09-14T22:16:21.114Z,14.30
2018-09-14T22:18:49.450Z,14.40
2018-09-14T22:21:18.282Z,14.40
2018-09-14T22:23:46.719Z,14.40
2018-09-14T22:26:14.945Z,14.40
2018-09-14T22:28:44.886Z,14.40
2018-09-14T22:31:13.072Z,14.40
2018-09-14T22:33:41.272Z,14.40
2018-09-14T22:36:09.501Z,14.40
2018-09-14T22:38:37.742Z,14.40
2018-09-14T22:41:05.922Z,14.40
2018-09-14T22:43:34.164Z,14.40
2018-09-14T22:46:02.372Z,14.40
2018-09-14T22:48:30.646Z,14.30
2018-09-14T22:50:58.989Z,14.20
2018-09-14T22:53:27.273Z,14.10
2018-09-14T22:55:55.670Z,14.00
2018-09-14T22:58:23.840Z,13.90
2018-09-14T23:00:57.609Z,13.80
2018-09-14T23:03:25.851Z,13.70
2018-09-14T23:05:54.077Z,13.60
2018-09-14T23:08:22.315Z,13.60
2018-09-14T23:10:50.571Z,13.50
2018-09-14T23:13:18.999Z,13.50
2018-09-14T23:15:54.905Z,13.40
2018-09-14T23:18:23.767Z,13.40
2018-09-14T23:20:52.004Z,13.30
2018-09-14T23:23:21.271Z,13.20
2018-09-14T23:25:50.323Z,13.20
2018-09-14T23:28:18.681Z,13.20
2018-09-14T23:30:46.914Z,13.10
2018-09-14T23:33:15.133Z,13.00
2018-09-14T23:35:44.216Z,13.00
2018-09-14T23:38:12.570Z,12.90
2018-09-14T23:40:40.804Z,12.80
2018-09-14T23:43:09.205Z,12.80
2018-09-14T23:45:37.405Z,12.80
2018-09-14T23:48:05.587Z,12.70
2018-09-14T23:50:33.746Z,12.70
2018-09-14T23:53:01.931Z,12.60
2018-09-14T23:55:30.233Z,12.60
2018-09-14T23:57:58.810Z,12.50
